Latest Weather Observations for Sydney - Observatory Hill

IDN60901

Issued at 3:21 pm EDT Thursday 23 March 2017 (issued every 10 minutes, with the page automatically refreshed every 10 minutes)

About weather observations | Map of Sydney area stations | Latest observations for Sydney area | Other Formats
Station Details ID: 066062 Name: SYDNEY (OBSERVATORY HILL) Lat: -33.86 Lon: 151.21 Height: 39.0 m
Data from the previous 72 hours. | See also: Recent months at Sydney - Observatory Hill

* Apparent temperature (App Temp) for Sydney - Observatory Hill is calculated using temperature observations collected at Sydney - Observatory Hill and wind observations collected at Fort Denison, as wind observations are not currently provided for Sydney - Observatory Hill.

Date/Time
EDT
Temp
°C
App
Temp
°C
Dew
Point
°C
Rel
Hum
%
Delta-T
°C
Wind Press
QNH
hPa
Press
MSL
hPa
Rain since
9am
mm
Dir  Spd
km/h
Gust
km/h
Spd
kts
Gust
kts
23/03:00pm 22.2 20.7 16.7 71 3.4 SSW 20 - 11 - 1017.5 1017.4 0.0
23/02:30pm 22.9 21.5 17.1 70 3.6 S 20 - 11 - 1017.6 1017.5 0.0
23/02:00pm 22.7 21.2 16.7 69 3.7 SSW 20 - 11 - 1017.8 1017.7 0.0
23/01:30pm 22.4 21.3 16.4 69 3.6 SSW 17 - 9 - 1018.4 1018.3 0.0
23/01:00pm 22.8 21.2 16.6 68 3.8 SSW 20 - 11 - 1018.9 1018.8 0.0
23/12:30pm 23.0 22.2 17.0 69 3.7 SSW 17 - 9 - 1019.0 1018.9 0.0
23/12:00pm 22.5 21.1 16.5 69 3.6 SSW 19 - 10 - 1019.3 1019.2 0.0
23/11:30am 22.4 20.9 16.4 69 3.6 SSW 19 - 10 - 1019.3 1019.2 0.0
23/11:00am 22.4 21.2 16.2 68 3.7 SSW 17 - 9 - 1019.2 1019.1 0.0
23/10:30am 22.6 21.6 16.6 69 3.7 SSW 17 - 9 - 1019.1 1019.0 0.0
23/10:00am 22.3 21.2 16.3 69 3.6 SSW 17 - 9 - 1018.9 1018.8 0.0
23/09:30am 22.1 21.2 16.8 72 3.2 SSW 17 - 9 - 1018.7 1018.6 0.0
23/09:00am 21.5 20.0 16.2 72 3.2 SSW 19 - 10 - 1018.6 1018.5 18.2
23/08:30am 21.2 20.4 16.2 73 3.0 SSW 15 - 8 - 1018.4 1018.3 18.2
23/08:00am 21.1 19.7 16.5 75 2.8 SSW 19 - 10 - 1018.0 1017.9 18.2
23/07:30am 20.9 19.3 16.5 76 2.7 SSW 20 - 11 - 1017.7 1017.6 18.2
23/07:00am 20.8 19.7 16.4 76 2.7 SSW 17 - 9 - 1017.5 1017.4 18.2
23/06:30am 20.8 19.3 16.4 76 2.7 SSW 19 - 10 - 1017.2 1017.1 18.2
23/06:00am 20.8 19.2 16.4 76 2.7 SSW 20 - 11 - 1016.8 1016.7 18.2
23/05:30am 20.8 19.2 16.4 76 2.7 SSW 20 - 11 - 1016.6 1016.5 18.2
23/05:00am 20.9 18.9 16.5 76 2.7 SSW 22 - 12 - 1016.3 1016.2 18.2
23/04:30am 20.8 18.9 16.6 77 2.5 SSW 22 - 12 - 1016.4 1016.3 18.2
23/04:00am 20.9 19.1 16.9 78 2.4 SSW 22 - 12 - 1016.3 1016.2 18.2
23/03:30am 21.0 20.2 17.2 79 2.3 SSW 17 - 9 - 1016.3 1016.2 18.2
23/03:00am 21.0 19.9 17.2 79 2.3 SSW 19 - 10 - 1016.3 1016.2 18.2
23/02:30am 21.2 20.0 17.6 80 2.2 SSW 20 - 11 - 1016.5 1016.4 18.2
23/02:00am 21.4 19.9 17.8 80 2.2 SSW 22 - 12 - 1016.6 1016.5 18.2
23/01:30am 21.5 20.6 18.1 81 2.1 SSW 20 - 11 - 1016.6 1016.5 18.2
23/01:00am 21.5 20.7 18.5 83 1.9 SSW 20 - 11 - 1016.5 1016.4 18.2
23/12:30am 21.5 20.3 18.5 83 1.9 SSW 22 - 12 - 1016.3 1016.2 18.2
23/12:00am 21.7 21.1 18.9 84 1.8 SSW 20 - 11 - 1016.4 1016.3 18.2
 
Date/Time
EDT
Temp
°C
App
Temp
°C
Dew
Point
°C
Rel
Hum
%
Delta-T
°C
Wind Press
QNH
hPa
Press
MSL
hPa
Rain since
9am
mm
Dir  Spd
km/h
Gust
km/h
Spd
kts
Gust
kts
22/11:30pm 22.2 21.8 19.4 84 1.8 SSW 20 - 11 - 1016.3 1016.2 18.2
22/11:00pm 22.4 22.1 19.6 84 1.8 S 20 - 11 - 1016.4 1016.3 18.2
22/10:30pm 22.4 22.4 19.8 85 1.7 S 19 - 10 - 1016.2 1016.1 18.2
22/10:00pm 22.6 23.9 20.1 86 1.6 SSE 13 - 7 - 1016.1 1016.0 18.0
22/09:30pm 22.0 23.0 19.4 85 1.7 SSW 13 - 7 - 1015.3 1015.2 18.0
22/09:00pm 21.6 22.7 18.8 84 1.8 WSW 11 - 6 - 1015.1 1015.0 18.0
22/08:30pm 21.6 23.3 18.4 82 2.0 S 7 - 4 - 1014.1 1014.0 18.0
22/08:00pm 21.3 21.0 18.3 83 1.9 WSW 17 - 9 - 1013.3 1013.2 18.0
22/07:30pm 21.5 20.8 18.7 84 1.8 WSW 20 - 11 - 1013.5 1013.4 18.0
22/07:00pm 22.3 23.9 19.1 82 2.0 WNW 9 - 5 - 1012.8 1012.7 18.0
22/06:30pm 21.8 23.1 19.4 86 1.5 ENE 11 - 6 - 1012.4 1012.3 18.0
22/06:00pm 21.8 22.9 19.7 88 1.3 SE 13 - 7 - 1012.7 1012.6 18.0
22/05:30pm 21.6 18.0 18.6 83 1.9 SW 35 - 19 - 1014.2 1014.1 9.4
22/05:28pm 21.8 - 18.8 83 1.9 - - - - - 1014.1 1014.0 9.2
22/05:00pm 25.1 28.7 21.2 79 2.6 SSW 4 - 2 - 1012.1 1012.0 2.4
22/04:30pm 25.0 25.3 19.6 72 3.5 WNW 17 - 9 - 1011.4 1011.3 1.2
22/04:00pm 27.7 29.2 20.5 65 4.7 ENE 13 - 7 - 1010.4 1010.3 0.0
22/03:30pm 29.3 29.5 20.5 59 5.8 ENE 20 - 11 - 1010.7 1010.6 0.0
22/03:00pm 29.8 30.1 20.4 57 6.2 E 19 - 10 - 1010.8 1010.7 0.0
22/02:30pm 30.4 30.6 19.4 51 7.2 E 17 - 9 - 1011.0 1010.9 0.0
22/02:00pm 31.3 34.0 20.3 52 7.3 NW 6 - 3 - 1011.3 1011.2 0.0
22/01:30pm 29.9 32.4 19.9 55 6.6 NW 6 - 3 - 1011.5 1011.4 0.0
22/01:00pm 30.1 33.3 20.4 56 6.4 ESE 4 - 2 - 1011.5 1011.4 0.0
22/12:30pm 29.1 32.4 20.8 61 5.5 NE 4 - 2 - 1011.7 1011.6 0.0
22/12:00pm 27.2 30.0 20.5 67 4.4 ESE 6 - 3 - 1012.3 1012.2 0.0
22/11:30am 26.9 30.7 21.6 72 3.5 ESE 4 - 2 - 1012.6 1012.5 0.0
22/11:00am 26.0 30.1 20.8 73 3.4 CALM 0 - 0 - 1013.0 1012.9 0.0
22/10:30am 24.8 28.3 20.3 76 2.9 ESE 2 - 1 - 1013.1 1013.0 0.0
22/10:00am 24.4 28.0 20.5 79 2.5 SSE 2 - 1 - 1013.0 1012.9 0.0
22/09:30am 23.8 27.2 20.1 80 2.4 NW 2 - 1 - 1012.9 1012.8 0.0
22/09:00am 23.9 27.1 20.6 82 2.2 SE 4 - 2 - 1012.7 1012.6 25.6
22/08:30am 23.2 26.7 20.3 84 1.9 E 2 - 1 - 1012.5 1012.4 25.6
22/08:00am 22.7 26.5 20.2 86 1.6 CALM 0 - 0 - 1012.0 1011.9 25.6
22/07:30am 22.4 24.8 20.1 87 1.5 WNW 7 - 4 - 1011.7 1011.6 25.6
22/07:00am 22.4 24.9 20.3 88 1.4 WNW 7 - 4 - 1011.4 1011.3 25.6
22/06:30am 22.5 25.7 20.4 88 1.4 SW 4 - 2 - 1011.0 1010.9 25.6
22/06:00am 22.4 26.3 20.3 88 1.4 CALM 0 - 0 - 1010.8 1010.7 25.6
22/05:30am 22.5 26.0 20.4 88 1.4 NE 2 - 1 - 1010.6 1010.5 25.6
22/05:00am 22.6 25.8 20.5 88 1.4 NNE 4 - 2 - 1010.6 1010.5 25.6
22/04:30am 22.6 25.3 20.3 87 1.5 W 6 - 3 - 1010.5 1010.4 25.6
22/04:00am 22.7 23.8 20.4 87 1.5 W 15 - 8 - 1010.4 1010.3 25.6
22/03:30am 22.8 23.5 20.5 87 1.5 W 17 - 9 - 1010.6 1010.5 25.6
22/03:00am 22.9 25.7 20.8 88 1.4 WNW 7 - 4 - 1010.8 1010.7 25.4
22/02:30am 22.8 25.5 20.7 88 1.4 W 7 - 4 - 1010.9 1010.8 25.4
22/02:00am 22.6 23.8 20.7 89 1.2 W 15 - 8 - 1011.5 1011.4 25.4
22/01:30am 22.6 24.6 20.7 89 1.2 W 11 - 6 - 1011.9 1011.8 25.4
22/01:00am 22.6 25.3 20.7 89 1.2 WNW 7 - 4 - 1012.1 1012.0 25.4
22/12:30am 22.6 24.6 20.7 89 1.2 W 11 - 6 - 1012.3 1012.2 25.4
22/12:00am 22.6 25.2 20.5 88 1.4 NW 7 - 4 - 1012.6 1012.5 25.4
 
Date/Time
EDT
Temp
°C
App
Temp
°C
Dew
Point
°C
Rel
Hum
%
Delta-T
°C
Wind Press
QNH
hPa
Press
MSL
hPa
Rain since
9am
mm
Dir  Spd
km/h
Gust
km/h
Spd
kts
Gust
kts
21/11:30pm 22.8 24.4 20.7 88 1.4 WNW 13 - 7 - 1013.4 1013.3 25.0
21/11:00pm 22.5 22.7 20.2 87 1.5 W 19 - 10 - 1013.4 1013.3 25.0
21/10:30pm 22.8 26.0 20.5 87 1.5 W 4 - 2 - 1013.3 1013.2 25.0
21/10:00pm 23.0 25.9 20.7 87 1.5 NE 6 - 3 - 1013.1 1013.0 25.0
21/09:30pm 23.3 24.5 21.4 89 1.3 N 17 - 9 - 1013.2 1013.1 24.8
21/09:00pm 23.5 25.5 21.6 89 1.3 NE 13 - 7 - 1013.1 1013.0 24.8
21/08:30pm 23.6 26.5 21.7 89 1.3 NE 9 - 5 - 1013.2 1013.1 24.8
21/08:00pm 23.6 25.7 21.7 89 1.3 SE 13 - 7 - 1012.9 1012.8 24.8
21/07:30pm 23.8 27.3 21.9 89 1.3 SE 6 - 3 - 1013.4 1013.3 24.4
21/07:00pm 24.1 27.7 22.0 88 1.4 NNE 6 - 3 - 1013.3 1013.2 23.2
21/06:30pm 23.9 25.6 21.6 87 1.5 ESE 15 - 8 - 1013.0 1012.9 17.2
21/06:00pm 24.1 27.6 21.8 87 1.5 E 6 - 3 - 1012.6 1012.5 16.8
21/05:30pm 24.2 28.3 21.5 85 1.8 E 2 - 1 - 1012.8 1012.7 10.6
21/05:00pm 24.7 26.5 21.2 81 2.3 ENE 13 - 7 - 1012.6 1012.5 0.8
21/04:30pm 25.3 26.9 20.8 76 3.0 E 13 - 7 - 1012.6 1012.5 0.0
21/04:00pm 25.6 26.5 20.8 75 3.2 E 17 - 9 - 1012.2 1012.1 0.0
21/03:30pm 25.8 26.7 20.1 71 3.7 E 15 - 8 - 1012.4 1012.3 0.0
21/03:00pm 26.0 26.8 20.6 72 3.5 E 17 - 9 - 1012.7 1012.6 0.0
21/02:30pm 25.7 26.7 20.3 72 3.5 E 15 - 8 - 1013.0 1012.9 0.0
21/02:00pm 25.6 26.2 20.2 72 3.5 ENE 17 - 9 - 1013.5 1013.4 0.0
21/01:30pm 25.9 27.0 20.5 72 3.5 E 15 - 8 - 1013.9 1013.8 0.0
21/01:00pm 25.8 26.6 19.9 70 3.8 E 15 - 8 - 1014.2 1014.1 0.0
21/12:30pm 26.7 27.6 20.1 67 4.3 E 15 - 8 - 1014.5 1014.4 0.0
21/12:00pm 25.8 26.7 20.1 71 3.7 ENE 15 - 8 - 1015.1 1015.0 0.0
21/11:30am 25.2 26.5 20.2 74 3.3 ENE 13 - 7 - 1015.4 1015.3 0.0
21/11:00am 25.0 27.2 20.3 75 3.1 ENE 9 - 5 - 1015.7 1015.6 0.0
21/10:30am 24.7 27.1 20.0 75 3.0 NE 7 - 4 - 1015.8 1015.7 0.0
21/10:00am 24.3 26.2 19.8 76 2.9 NNE 9 - 5 - 1015.9 1015.8 0.0
21/09:30am 24.5 25.3 19.8 75 3.0 NNE 15 - 8 - 1015.9 1015.8 0.0
21/09:00am 24.5 26.2 20.2 77 2.8 NNE 11 - 6 - 1015.8 1015.7 0.0
21/08:30am 23.7 26.1 20.0 80 2.4 N 7 - 4 - 1015.8 1015.7 0.0
21/08:00am 23.6 25.7 20.1 81 2.3 NNE 9 - 5 - 1015.6 1015.5 0.0
21/07:30am 23.6 25.4 20.3 82 2.1 NNE 11 - 6 - 1015.5 1015.4 0.0
21/07:00am 23.4 25.9 20.3 83 2.0 NNE 7 - 4 - 1015.3 1015.2 0.0
21/06:30am 23.4 26.0 20.5 84 1.9 NE 7 - 4 - 1015.0 1014.9 0.0
21/06:00am 23.4 25.6 20.3 83 2.0 NE 9 - 5 - 1014.5 1014.4 0.0
21/05:30am 23.4 25.6 20.3 83 2.0 NE 9 - 5 - 1014.5 1014.4 0.0
21/05:00am 23.3 25.4 20.2 83 2.0 NE 9 - 5 - 1014.5 1014.4 0.0
21/04:30am 23.4 25.2 20.3 83 2.0 NE 11 - 6 - 1014.7 1014.6 0.0
21/04:00am 23.4 25.1 20.2 82 2.1 NNE 11 - 6 - 1014.9 1014.8 0.0
21/03:30am 23.4 25.5 20.2 82 2.1 NNE 9 - 5 - 1014.9 1014.8 0.0
21/03:00am 23.5 24.8 20.2 82 2.1 NE 13 - 7 - 1015.1 1015.0 0.0
21/02:30am 23.6 25.4 20.3 82 2.1 ENE 11 - 6 - 1015.4 1015.3 0.0
21/02:00am 23.6 25.4 20.3 82 2.1 NE 11 - 6 - 1015.6 1015.5 0.0
21/01:30am 23.6 25.3 20.1 81 2.3 NE 11 - 6 - 1015.8 1015.7 0.0
21/01:00am 23.7 25.0 20.2 81 2.3 NE 13 - 7 - 1015.9 1015.8 0.0
21/12:30am 23.8 25.9 20.1 80 2.4 NE 9 - 5 - 1016.3 1016.2 0.0
21/12:00am 23.8 25.5 20.1 80 2.4 NE 11 - 6 - 1016.3 1016.2 0.0
 
Date/Time
EDT
Temp
°C
App
Temp
°C
Dew
Point
°C
Rel
Hum
%
Delta-T
°C
Wind Press
QNH
hPa
Press
MSL
hPa
Rain since
9am
mm
Dir  Spd
km/h
Gust
km/h
Spd
kts
Gust
kts
20/11:30pm 23.9 25.6 20.2 80 2.4 NNE 11 - 6 - 1016.5 1016.4 0.0
20/11:00pm 24.0 25.0 20.3 80 2.4 NE 15 - 8 - 1016.4 1016.3 0.0
20/10:30pm 24.0 24.9 20.1 79 2.5 NNE 15 - 8 - 1016.6 1016.5 0.0
20/10:00pm 24.1 24.1 20.2 79 2.5 NE 20 - 11 - 1016.6 1016.5 0.0
20/09:30pm 24.1 24.2 20.4 80 2.4 NE 20 - 11 - 1016.4 1016.3 0.0
20/09:00pm 24.2 23.9 20.3 79 2.5 NNE 22 - 12 - 1016.2 1016.1 0.0
20/08:30pm 24.3 24.0 20.4 79 2.5 NNE 22 - 12 - 1016.0 1015.9 0.0
20/08:00pm 24.3 24.6 20.4 79 2.5 NE 19 - 10 - 1015.8 1015.7 0.0
20/07:30pm 24.4 25.0 20.3 78 2.7 NE 17 - 9 - 1015.5 1015.4 0.0
20/07:00pm 24.6 24.9 20.3 77 2.8 NNE 19 - 10 - 1015.7 1015.6 0.0
20/06:30pm 24.9 25.1 20.2 75 3.1 NE 19 - 10 - 1015.5 1015.4 0.0
20/06:00pm 25.2 24.8 20.2 74 3.3 NE 22 - 12 - 1015.4 1015.3 0.0
20/05:30pm 25.6 25.6 20.2 72 3.5 NE 20 - 11 - 1015.2 1015.1 0.0
20/05:00pm 26.1 25.4 20.2 70 3.9 NE 24 - 13 - 1015.1 1015.0 0.0
20/04:30pm 26.2 25.2 20.5 71 3.7 NE 26 - 14 - 1015.0 1014.9 0.0
20/04:00pm 26.1 25.8 20.4 71 3.7 NE 22 - 12 - 1015.2 1015.1 0.0
20/03:30pm 26.5 26.5 20.1 68 4.2 NE 20 - 11 - 1015.5 1015.4 0.0

Latest Capital City Observations: Canberra | Sydney | Melbourne | Brisbane | Adelaide | Perth | Hobart | Darwin

Other Formats:

Comma delimited format used in spreadsheet applications
http://www.bom.gov.au/fwo/IDN60901/IDN60901.94768.axf

JavaScript Object Notation format (JSON) in row-major order
http://www.bom.gov.au/fwo/IDN60901/IDN60901.94768.json